createdAt,value
2022-08-05T00:00:51.447Z,29.12
2022-08-05T00:01:51.434Z,29.08
2022-08-05T00:02:52.292Z,29.08
2022-08-05T00:03:51.452Z,29.07
2022-08-05T00:04:55.564Z,29.14
2022-08-05T00:06:04.905Z,28.98
2022-08-05T00:06:52.068Z,29.07
2022-08-05T00:08:00.748Z,28.97
2022-08-05T00:08:51.658Z,28.97
2022-08-05T00:09:51.701Z,29.02
2022-08-05T00:10:51.742Z,28.89
2022-08-05T00:11:55.632Z,28.91
2022-08-05T00:12:56.820Z,28.79
2022-08-05T00:13:53.256Z,28.87
2022-08-05T00:14:51.994Z,28.85
2022-08-05T00:15:56.413Z,28.79
2022-08-05T00:16:53.431Z,28.83
2022-08-05T00:17:52.036Z,28.82
2022-08-05T00:18:52.076Z,28.80
2022-08-05T00:20:01.903Z,28.79
2022-08-05T00:20:52.160Z,28.77
2022-08-05T00:21:52.208Z,28.74
2022-08-05T00:22:55.250Z,28.77
2022-08-05T00:24:09.978Z,28.79
2022-08-05T00:24:55.108Z,28.77
2022-08-05T00:25:52.370Z,28.65
2022-08-05T00:26:52.925Z,28.67
2022-08-05T00:27:52.456Z,28.64
2022-08-05T00:28:52.494Z,28.70
2022-08-05T00:29:52.541Z,28.65
2022-08-05T00:30:53.638Z,28.55
2022-08-05T00:32:09.362Z,28.62
2022-08-05T00:32:52.662Z,28.57
2022-08-05T00:34:55.987Z,28.58
2022-08-05T00:35:04.789Z,28.50
2022-08-05T00:36:16.217Z,28.54
2022-08-05T00:37:10.960Z,28.45
2022-08-05T00:37:54.094Z,28.48
2022-08-05T00:38:52.924Z,28.43
2022-08-05T00:39:58.625Z,28.39
2022-08-05T00:40:53.381Z,28.39
2022-08-05T00:41:55.560Z,28.35
2022-08-05T00:42:53.076Z,28.39
2022-08-05T00:43:53.117Z,28.23
2022-08-05T00:44:53.159Z,28.33
2022-08-05T00:45:53.202Z,28.28
2022-08-05T00:46:54.179Z,28.23
2022-08-05T00:47:57.705Z,28.27
2022-08-05T00:48:53.324Z,28.23
2022-08-05T00:49:53.375Z,28.25
2022-08-05T00:50:53.407Z,28.18
2022-08-05T00:51:53.456Z,28.20
2022-08-05T00:52:54.934Z,28.23
2022-08-05T00:54:02.304Z,28.23
2022-08-05T00:54:53.573Z,28.15
2022-08-05T00:55:53.631Z,28.14
2022-08-05T00:56:53.655Z,28.13
2022-08-05T00:57:58.690Z,28.06
2022-08-05T00:58:53.742Z,28.03
2022-08-05T00:59:53.781Z,28.05
2022-08-05T01:00:53.873Z,28.05
2022-08-05T01:01:53.898Z,28.01
2022-08-05T01:02:53.910Z,27.91
2022-08-05T01:03:53.947Z,27.90
2022-08-05T01:04:53.991Z,27.81
2022-08-05T01:05:54.436Z,27.86
2022-08-05T01:06:55.047Z,27.87
2022-08-05T01:08:41.080Z,27.81
2022-08-05T01:08:54.152Z,27.86
2022-08-05T01:09:55.601Z,27.86
2022-08-05T01:10:54.234Z,27.77
2022-08-05T01:11:54.276Z,27.74
2022-08-05T01:13:13.046Z,27.72
2022-08-05T01:13:58.847Z,27.68
2022-08-05T01:14:54.399Z,27.77
2022-08-05T01:15:54.443Z,27.66
2022-08-05T01:16:54.481Z,27.66
2022-08-05T01:17:54.524Z,27.66
2022-08-05T01:18:56.372Z,27.65
2022-08-05T01:20:02.088Z,27.55
2022-08-05T01:20:54.670Z,27.61
2022-08-05T01:21:54.690Z,27.55
2022-08-05T01:22:57.217Z,27.50
2022-08-05T01:23:54.771Z,27.49
2022-08-05T01:24:54.811Z,27.40
2022-08-05T01:25:54.855Z,27.39
2022-08-05T01:26:54.894Z,27.45
2022-08-05T01:27:55.825Z,27.40
2022-08-05T01:28:54.974Z,27.31
2022-08-05T01:29:55.016Z,27.42
2022-08-05T01:30:55.342Z,27.30
2022-08-05T01:31:55.102Z,27.30
2022-08-05T01:32:55.138Z,27.28
2022-08-05T01:33:55.421Z,27.20
2022-08-05T01:34:55.221Z,27.18
2022-08-05T01:35:55.262Z,27.13
2022-08-05T01:36:55.301Z,27.18
2022-08-05T01:37:55.347Z,27.08
2022-08-05T01:38:55.441Z,27.03
2022-08-05T01:39:59.070Z,27.09
2022-08-05T01:40:55.465Z,27.06
2022-08-05T01:41:55.505Z,27.05
2022-08-05T01:42:55.546Z,26.94
2022-08-05T01:43:55.589Z,26.91
2022-08-05T01:44:55.629Z,26.88
2022-08-05T01:45:56.659Z,26.88
2022-08-05T01:46:55.709Z,26.86
2022-08-05T01:47:55.754Z,26.87
2022-08-05T01:48:55.791Z,26.88
2022-08-05T01:50:02.226Z,26.87
2022-08-05T01:50:55.871Z,26.83
2022-08-05T01:51:55.912Z,26.86
2022-08-05T01:52:55.954Z,26.86
2022-08-05T01:53:58.651Z,26.79
2022-08-05T01:54:56.033Z,26.81
2022-08-05T01:55:56.081Z,26.76
2022-08-05T01:58:09.773Z,26.73
2022-08-05T01:58:18.741Z,26.69
2022-08-05T01:58:56.196Z,26.71
2022-08-05T01:59:56.240Z,26.71
2022-08-05T02:00:56.278Z,26.60
2022-08-05T02:01:56.405Z,26.61
2022-08-05T02:02:56.359Z,26.60
2022-08-05T02:03:56.402Z,26.61
2022-08-05T02:04:56.443Z,26.60
2022-08-05T02:05:58.008Z,26.59
2022-08-05T02:06:56.523Z,26.51
2022-08-05T02:08:01.178Z,26.53
2022-08-05T02:08:58.851Z,26.56
2022-08-05T02:09:56.642Z,26.57
2022-08-05T02:10:56.682Z,26.47
2022-08-05T02:11:56.725Z,26.47
2022-08-05T02:12:56.766Z,26.44
2022-08-05T02:13:56.805Z,26.44
2022-08-05T02:14:56.845Z,26.42
2022-08-05T02:15:56.888Z,26.42
2022-08-05T02:16:56.928Z,26.36
2022-08-05T02:18:32.992Z,26.42
2022-08-05T02:18:57.006Z,26.35
2022-08-05T02:19:57.047Z,26.35
2022-08-05T02:20:58.737Z,26.35
2022-08-05T02:21:57.129Z,26.31
2022-08-05T02:22:57.168Z,26.39
2022-08-05T02:23:57.210Z,26.27
2022-08-05T02:24:57.248Z,26.24
2022-08-05T02:25:57.290Z,26.24
2022-08-05T02:26:57.330Z,26.21
2022-08-05T02:27:58.048Z,26.24
2022-08-05T02:28:58.216Z,26.20
2022-08-05T02:29:58.388Z,26.24
2022-08-05T02:30:57.491Z,26.19
2022-08-05T02:31:57.534Z,26.17
2022-08-05T02:32:57.582Z,26.23
2022-08-05T02:33:58.136Z,26.19
2022-08-05T02:34:57.661Z,26.11
2022-08-05T02:36:00.673Z,26.13
2022-08-05T02:36:57.736Z,26.09
2022-08-05T02:38:00.178Z,26.12
2022-08-05T02:38:57.924Z,25.98
2022-08-05T02:39:57.854Z,26.04
2022-08-05T02:40:57.940Z,26.01
2022-08-05T02:42:01.206Z,25.94
2022-08-05T02:42:57.977Z,25.98
2022-08-05T02:44:06.014Z,25.96
2022-08-05T02:44:58.055Z,26.00
2022-08-05T02:45:58.096Z,26.01
2022-08-05T02:47:00.165Z,26.00
2022-08-05T02:48:06.670Z,25.91
2022-08-05T02:48:58.230Z,25.85
2022-08-05T02:49:58.258Z,25.90
2022-08-05T02:50:58.300Z,25.83
2022-08-05T02:52:03.165Z,25.91
2022-08-05T02:52:58.380Z,25.91
2022-08-05T02:54:03.333Z,25.93
2022-08-05T02:54:58.456Z,25.86
2022-08-05T02:55:59.938Z,25.85
2022-08-05T02:56:58.536Z,25.75
2022-08-05T02:58:11.079Z,25.82
2022-08-05T02:58:58.615Z,25.76
2022-08-05T02:59:59.419Z,25.76
2022-08-05T03:00:58.699Z,25.79
2022-08-05T03:01:58.842Z,25.79
2022-08-05T03:02:58.777Z,25.74
2022-08-05T03:04:02.583Z,25.71
2022-08-05T03:04:58.858Z,25.67
2022-08-05T03:06:54.783Z,25.67
2022-08-05T03:07:00.255Z,25.66
2022-08-05T03:08:04.323Z,25.71
2022-08-05T03:08:59.032Z,25.67
2022-08-05T03:09:59.058Z,25.69
2022-08-05T03:11:53.668Z,25.57
2022-08-05T03:11:59.151Z,25.63
2022-08-05T03:14:02.715Z,25.67
2022-08-05T03:15:02.072Z,25.67
2022-08-05T03:17:09.015Z,25.64
2022-08-05T03:18:06.167Z,25.61
2022-08-05T03:20:10.462Z,25.63
2022-08-05T03:21:10.269Z,25.54
2022-08-05T03:23:14.333Z,25.51
2022-08-05T03:24:14.367Z,25.53
2022-08-05T03:25:32.988Z,25.51
2022-08-05T03:26:31.543Z,25.57
2022-08-05T03:27:14.487Z,25.46
2022-08-05T03:28:14.528Z,25.48
2022-08-05T03:29:17.330Z,25.48
2022-08-05T03:30:14.607Z,25.49
2022-08-05T03:31:18.206Z,25.49
2022-08-05T03:32:14.686Z,25.49
2022-08-05T03:33:14.724Z,25.38
2022-08-05T03:34:14.768Z,25.45
2022-08-05T03:35:14.807Z,25.45
2022-08-05T03:36:14.846Z,25.39
2022-08-05T03:37:14.883Z,25.45
2022-08-05T03:38:14.926Z,25.36
2022-08-05T03:39:20.036Z,25.34
2022-08-05T03:40:15.519Z,25.35
2022-08-05T03:41:15.044Z,25.41
2022-08-05T03:42:15.084Z,25.29
2022-08-05T03:43:58.504Z,25.38
2022-08-05T03:44:20.019Z,25.35
2022-08-05T03:45:21.553Z,25.45
2022-08-05T03:46:15.243Z,25.46
2022-08-05T03:47:15.355Z,25.36
2022-08-05T03:48:15.323Z,25.38
2022-08-05T03:49:15.362Z,25.29
2022-08-05T03:50:15.401Z,25.35
2022-08-05T03:52:37.709Z,25.31
2022-08-05T03:52:50.622Z,25.35
2022-08-05T03:55:34.230Z,25.35
2022-08-05T03:55:51.628Z,25.36
2022-08-05T03:56:01.782Z,25.41
2022-08-05T03:56:18.107Z,25.34
2022-08-05T03:57:16.389Z,25.36
2022-08-05T03:58:15.721Z,25.31
2022-08-05T03:59:15.763Z,25.39
2022-08-05T04:00:16.433Z,25.48
2022-08-05T04:01:15.871Z,25.35
2022-08-05T04:02:17.597Z,25.48
2022-08-05T04:03:28.217Z,25.39
2022-08-05T04:04:16.870Z,25.45
2022-08-05T04:05:16.001Z,25.35
2022-08-05T04:06:16.038Z,25.35
2022-08-05T04:07:16.096Z,25.44
2022-08-05T04:08:34.819Z,25.39
2022-08-05T04:09:20.286Z,25.31
2022-08-05T04:10:17.540Z,25.38
2022-08-05T04:11:16.248Z,25.39
2022-08-05T04:12:23.576Z,25.44
2022-08-05T04:13:16.319Z,25.48
2022-08-05T04:14:18.174Z,25.45
2022-08-05T04:15:16.832Z,25.45
2022-08-05T04:16:16.437Z,25.38
2022-08-05T04:17:16.476Z,25.44
2022-08-05T04:18:22.510Z,25.45
2022-08-05T04:19:16.554Z,25.39
2022-08-05T04:20:16.594Z,25.29
2022-08-05T04:21:45.752Z,25.44
2022-08-05T04:22:20.600Z,25.30
2022-08-05T04:23:16.715Z,25.39
2022-08-05T04:24:19.346Z,25.38
2022-08-05T04:25:16.792Z,25.31
2022-08-05T04:26:17.387Z,25.39
2022-08-05T04:27:16.930Z,25.38
2022-08-05T04:28:17.271Z,25.31
2022-08-05T04:29:16.955Z,25.38
2022-08-05T04:30:16.994Z,25.39
2022-08-05T04:31:17.036Z,25.36
2022-08-05T04:32:30.649Z,25.45
2022-08-05T04:33:17.113Z,25.31
2022-08-05T04:34:32.584Z,25.42
2022-08-05T04:35:19.454Z,25.34
2022-08-05T04:36:46.143Z,25.36
2022-08-05T04:37:17.271Z,25.42
2022-08-05T04:38:17.308Z,25.45
2022-08-05T04:39:17.389Z,25.45
2022-08-05T04:40:19.639Z,25.36
2022-08-05T04:41:17.429Z,25.41
2022-08-05T04:43:29.959Z,25.39
2022-08-05T04:44:30.812Z,25.39
2022-08-05T04:46:28.238Z,25.39
2022-08-05T04:47:23.324Z,25.53
2022-08-05T04:49:16.288Z,25.49
2022-08-05T04:50:16.266Z,25.45
2022-08-05T04:52:20.383Z,25.49
2022-08-05T04:53:20.418Z,25.54
2022-08-05T04:54:20.460Z,25.56
2022-08-05T04:55:21.057Z,25.51
2022-08-05T04:56:35.143Z,25.53
2022-08-05T04:57:20.595Z,25.59
2022-08-05T04:58:21.695Z,25.54
2022-08-05T04:59:23.957Z,25.59
2022-08-05T05:00:23.586Z,25.60
2022-08-05T05:02:05.827Z,25.60
2022-08-05T05:02:41.499Z,25.56
2022-08-05T05:03:20.814Z,25.56
2022-08-05T05:04:20.858Z,25.66
2022-08-05T05:05:28.191Z,25.61
2022-08-05T05:06:40.671Z,25.66
2022-08-05T05:07:29.277Z,25.67
2022-08-05T05:08:26.737Z,25.64
2022-08-05T05:09:21.060Z,25.71
2022-08-05T05:10:21.093Z,25.64
2022-08-05T05:11:21.133Z,25.74
2022-08-05T05:12:21.171Z,25.67
2022-08-05T05:13:21.214Z,25.67
2022-08-05T05:14:27.776Z,25.64
2022-08-05T05:15:57.436Z,25.78
2022-08-05T05:16:21.331Z,25.74
2022-08-05T05:17:24.705Z,25.76
2022-08-05T05:18:31.179Z,25.74
2022-08-05T05:19:23.681Z,25.72
2022-08-05T05:20:21.496Z,25.75
2022-08-05T05:21:21.533Z,25.81
2022-08-05T05:22:24.646Z,25.81
2022-08-05T05:23:21.613Z,25.83
2022-08-05T05:24:21.662Z,25.86
2022-08-05T05:25:21.691Z,25.90
2022-08-05T05:26:28.689Z,25.82
2022-08-05T05:27:21.964Z,25.86
2022-08-05T05:28:21.819Z,25.85
2022-08-05T05:29:21.851Z,25.85
2022-08-05T05:30:29.783Z,25.91
2022-08-05T05:31:21.934Z,25.91
2022-08-05T05:32:21.974Z,25.91
2022-08-05T05:33:23.463Z,25.91
2022-08-05T05:34:27.122Z,25.89
2022-08-05T05:35:22.091Z,26.01
2022-08-05T05:36:22.129Z,26.04
2022-08-05T05:37:22.459Z,25.98
2022-08-05T05:38:27.098Z,26.00
2022-08-05T05:39:22.294Z,26.03
2022-08-05T05:40:22.289Z,26.01
2022-08-05T05:41:22.332Z,26.03
2022-08-05T05:42:22.370Z,25.97
2022-08-05T05:43:54.030Z,26.08
2022-08-05T05:44:36.528Z,25.98
2022-08-05T05:45:22.491Z,26.11
2022-08-05T05:46:22.530Z,26.09
2022-08-05T05:47:22.571Z,26.08
2022-08-05T05:48:27.582Z,26.12
2022-08-05T05:49:23.376Z,26.09
2022-08-05T05:50:22.690Z,26.06
2022-08-05T05:51:22.748Z,26.24
2022-08-05T05:52:26.438Z,26.17
2022-08-05T05:53:23.067Z,26.13
2022-08-05T05:54:22.883Z,26.17
2022-08-05T05:55:22.928Z,26.20
2022-08-05T05:56:26.013Z,26.16
2022-08-05T05:57:23.073Z,26.24
2022-08-05T05:58:23.013Z,26.23
2022-08-05T05:59:23.052Z,26.21
2022-08-05T06:00:27.757Z,26.24
2022-08-05T06:01:23.470Z,26.19
2022-08-05T06:02:32.559Z,26.21
2022-08-05T06:03:39.645Z,26.27
2022-08-05T06:04:23.503Z,26.32
2022-08-05T06:05:23.329Z,26.27
2022-08-05T06:06:23.354Z,26.28
2022-08-05T06:07:23.664Z,26.31
2022-08-05T06:08:32.397Z,26.28
2022-08-05T06:09:26.517Z,26.34
2022-08-05T06:10:23.787Z,26.28
2022-08-05T06:11:23.561Z,26.31
2022-08-05T06:12:23.737Z,26.35
2022-08-05T06:13:23.692Z,26.32
2022-08-05T06:14:23.724Z,26.34
2022-08-05T06:15:24.510Z,26.32
2022-08-05T06:16:31.806Z,26.34
2022-08-05T06:17:24.567Z,26.34
2022-08-05T06:18:31.269Z,26.38
2022-08-05T06:19:34.136Z,26.34
2022-08-05T06:20:24.142Z,26.38
2022-08-05T06:21:24.019Z,26.38
2022-08-05T06:22:24.029Z,26.42
2022-08-05T06:23:24.011Z,26.42
2022-08-05T06:24:27.313Z,26.38
2022-08-05T06:25:59.858Z,26.41
2022-08-05T06:26:25.150Z,26.42
2022-08-05T06:28:10.782Z,26.46
2022-08-05T06:28:24.551Z,26.46
2022-08-05T06:29:46.787Z,26.42
2022-08-05T06:30:24.354Z,26.46
2022-08-05T06:31:30.583Z,26.38
2022-08-05T06:32:25.938Z,26.32
2022-08-05T06:33:33.342Z,26.39
2022-08-05T06:34:24.485Z,26.42
2022-08-05T06:36:08.240Z,26.38
2022-08-05T06:36:25.937Z,26.42
2022-08-05T06:37:57.937Z,26.42
2022-08-05T06:38:36.013Z,26.44
2022-08-05T06:39:27.020Z,26.49
2022-08-05T06:40:27.737Z,26.51
2022-08-05T06:41:24.738Z,26.50
2022-08-05T06:42:25.373Z,26.53
2022-08-05T06:43:58.245Z,26.57
2022-08-05T06:44:24.856Z,26.61
2022-08-05T06:45:44.594Z,26.68
2022-08-05T06:46:30.296Z,26.69
2022-08-05T06:48:11.736Z,26.72
2022-08-05T06:48:50.249Z,26.78
2022-08-05T06:50:01.402Z,26.83
2022-08-05T06:50:25.098Z,26.84
2022-08-05T06:51:29.357Z,26.84
2022-08-05T06:52:36.361Z,26.91
2022-08-05T06:53:27.900Z,26.93
2022-08-05T06:54:25.824Z,26.87
2022-08-05T06:55:25.298Z,26.93
2022-08-05T06:56:26.614Z,26.97
2022-08-05T06:58:03.889Z,27.05
2022-08-05T06:58:35.288Z,26.96
2022-08-05T06:59:25.459Z,27.05
2022-08-05T07:00:25.651Z,26.94
2022-08-05T07:01:31.963Z,27.01
2022-08-05T07:02:25.581Z,27.05
2022-08-05T07:03:28.132Z,27.08
2022-08-05T07:04:25.674Z,27.05
2022-08-05T07:05:31.870Z,27.09
2022-08-05T07:06:25.767Z,27.11
2022-08-05T07:07:35.591Z,27.05
2022-08-05T07:08:25.837Z,27.20
2022-08-05T07:09:25.880Z,27.21
2022-08-05T07:10:32.382Z,27.20
2022-08-05T07:11:25.957Z,27.27
2022-08-05T07:12:26.150Z,27.24
2022-08-05T07:13:56.914Z,27.23
2022-08-05T07:14:30.045Z,27.30
2022-08-05T07:16:00.367Z,27.33
2022-08-05T07:17:59.526Z,27.25
2022-08-05T07:18:00.088Z,27.33
2022-08-05T07:18:29.336Z,27.39
2022-08-05T07:20:05.742Z,27.38
2022-08-05T07:20:38.759Z,27.45
2022-08-05T07:21:26.365Z,27.38
2022-08-05T07:22:29.012Z,27.42
2022-08-05T07:23:29.502Z,27.39
2022-08-05T07:24:28.681Z,27.45
2022-08-05T07:25:56.252Z,27.42
2022-08-05T07:26:26.567Z,27.39
2022-08-05T07:27:27.638Z,27.52
2022-08-05T07:28:26.635Z,27.40
2022-08-05T07:30:24.232Z,27.45
2022-08-05T07:30:32.268Z,27.46
2022-08-05T07:31:40.747Z,27.49
2022-08-05T07:32:26.814Z,27.46
2022-08-05T07:33:36.866Z,27.49
2022-08-05T07:34:28.791Z,27.46
2022-08-05T07:36:04.200Z,27.52
2022-08-05T07:36:26.961Z,27.52
2022-08-05T07:37:29.119Z,27.45
2022-08-05T07:38:33.803Z,27.50
2022-08-05T07:40:04.492Z,27.43
2022-08-05T07:40:32.843Z,27.46
2022-08-05T07:42:14.610Z,27.50
2022-08-05T07:42:31.770Z,27.52
2022-08-05T07:43:27.288Z,27.46
2022-08-05T07:44:27.295Z,27.49
2022-08-05T07:45:57.565Z,27.43
2022-08-05T07:46:27.393Z,27.45
2022-08-05T07:47:27.798Z,27.48
2022-08-05T07:49:00.642Z,27.42
2022-08-05T07:49:27.526Z,27.40
2022-08-05T07:50:32.428Z,27.43
2022-08-05T07:51:40.270Z,27.35
2022-08-05T07:52:27.615Z,27.42
2022-08-05T07:53:36.881Z,27.39
2022-08-05T07:54:31.021Z,27.42
2022-08-05T07:55:44.533Z,27.35
2022-08-05T07:56:39.325Z,27.39
2022-08-05T07:57:51.316Z,27.31
2022-08-05T07:58:57.468Z,27.31
2022-08-05T07:59:39.117Z,27.31
2022-08-05T08:00:27.943Z,27.23
2022-08-05T08:01:29.978Z,27.23
2022-08-05T08:02:31.388Z,27.21
2022-08-05T08:03:44.446Z,27.21
2022-08-05T08:04:37.513Z,27.16
2022-08-05T08:05:28.146Z,27.16
2022-08-05T08:06:28.378Z,27.15
2022-08-05T08:07:28.970Z,27.12
2022-08-05T08:08:28.269Z,27.12
2022-08-05T08:09:29.170Z,27.12
2022-08-05T08:10:28.349Z,27.03
2022-08-05T08:11:47.396Z,27.11
2022-08-05T08:12:48.393Z,27.08
2022-08-05T08:13:29.425Z,27.01
2022-08-05T08:14:28.534Z,27.05
2022-08-05T08:16:34.975Z,27.05
2022-08-05T08:16:35.948Z,27.11
2022-08-05T08:17:28.627Z,27.01
2022-08-05T08:18:28.679Z,27.01
2022-08-05T08:20:10.232Z,26.97
2022-08-05T08:20:59.689Z,27.02
2022-08-05T08:21:28.790Z,26.96
2022-08-05T08:22:28.832Z,26.97
2022-08-05T08:24:01.104Z,26.98
2022-08-05T08:24:51.635Z,27.03
2022-08-05T08:26:00.086Z,26.97
2022-08-05T08:26:29.596Z,26.96
2022-08-05T08:27:40.445Z,27.01
2022-08-05T08:28:35.608Z,26.94
2022-08-05T08:30:04.280Z,26.96
2022-08-05T08:30:37.713Z,26.98
2022-08-05T08:31:29.196Z,26.98
2022-08-05T08:32:29.238Z,26.96
2022-08-05T08:33:29.278Z,27.01
2022-08-05T08:34:30.398Z,26.97
2022-08-05T08:35:34.692Z,26.98
2022-08-05T08:36:47.365Z,26.98
2022-08-05T08:37:29.442Z,26.97
2022-08-05T08:38:35.935Z,26.91
2022-08-05T08:39:29.547Z,26.96
2022-08-05T08:40:29.562Z,26.97
2022-08-05T08:41:50.858Z,26.93
2022-08-05T08:42:34.236Z,26.98
2022-08-05T08:45:20.710Z,26.96
2022-08-05T08:45:23.475Z,26.98
2022-08-05T08:45:30.611Z,26.98
2022-08-05T08:46:29.809Z,26.93
2022-08-05T08:48:07.157Z,26.93
2022-08-05T08:48:59.678Z,26.90
2022-08-05T08:50:08.857Z,26.87
2022-08-05T08:51:03.109Z,26.90
2022-08-05T08:52:03.525Z,26.84
2022-08-05T08:52:30.359Z,26.90
2022-08-05T08:53:30.093Z,26.81
2022-08-05T08:54:30.139Z,26.83
2022-08-05T08:56:03.002Z,26.83
2022-08-05T08:56:30.216Z,26.86
2022-08-05T08:57:42.377Z,26.83
2022-08-05T08:58:43.112Z,26.79
2022-08-05T08:59:33.513Z,26.72
2022-08-05T09:00:30.420Z,26.78
2022-08-05T09:01:30.500Z,26.73
2022-08-05T09:02:30.456Z,26.66
2022-08-05T09:03:40.407Z,26.72
2022-08-05T09:04:31.070Z,26.75
2022-08-05T09:05:38.324Z,26.69
2022-08-05T09:06:30.881Z,26.60
2022-08-05T09:07:39.451Z,26.69
2022-08-05T09:08:30.703Z,26.65
2022-08-05T09:09:34.635Z,26.56
2022-08-05T09:10:30.786Z,26.65
2022-08-05T09:11:53.670Z,26.60
2022-08-05T09:12:31.251Z,26.54
2022-08-05T09:13:31.792Z,26.57
2022-08-05T09:14:58.880Z,26.59
2022-08-05T09:15:30.990Z,26.56
2022-08-05T09:16:31.028Z,26.61
2022-08-05T09:17:42.845Z,26.50
2022-08-05T09:18:31.115Z,26.54
2022-08-05T09:19:36.671Z,26.46
2022-08-05T09:20:36.404Z,26.46
2022-08-05T09:22:22.777Z,26.64
2022-08-05T09:22:33.101Z,26.59
2022-08-05T09:23:43.357Z,26.47
2022-08-05T09:24:31.770Z,26.60
2022-08-05T09:26:02.045Z,26.60
2022-08-05T09:26:32.426Z,26.68
2022-08-05T09:28:03.830Z,26.59
2022-08-05T09:28:33.182Z,26.65
2022-08-05T09:29:31.552Z,26.69
2022-08-05T09:30:31.590Z,26.76
2022-08-05T09:32:39.941Z,26.73
2022-08-05T09:32:45.756Z,26.84
2022-08-05T09:33:35.070Z,26.87
2022-08-05T09:34:31.753Z,26.86
2022-08-05T09:35:31.794Z,26.86
2022-08-05T09:36:33.453Z,26.78
2022-08-05T09:38:17.089Z,26.90
2022-08-05T09:38:31.915Z,26.88
2022-08-05T09:39:45.300Z,26.88
2022-08-05T09:40:32.292Z,26.97
2022-08-05T09:41:33.205Z,26.87
2022-08-05T09:42:32.304Z,26.96
2022-08-05T09:43:41.192Z,26.93
2022-08-05T09:44:32.159Z,26.98
2022-08-05T09:46:07.237Z,26.90
2022-08-05T09:46:32.238Z,26.96
2022-08-05T09:47:48.086Z,26.90
2022-08-05T09:48:32.319Z,26.90
2022-08-05T09:49:54.478Z,26.86
2022-08-05T09:50:38.711Z,26.84
2022-08-05T09:51:32.444Z,26.81
2022-08-05T09:52:32.483Z,26.81
2022-08-05T09:53:54.923Z,26.84
2022-08-05T09:54:32.565Z,26.71
2022-08-05T09:55:58.313Z,26.71
2022-08-05T09:56:32.647Z,26.69
2022-08-05T09:57:33.774Z,26.65
2022-08-05T09:58:32.750Z,26.72
2022-08-05T09:59:35.137Z,26.61
2022-08-05T10:00:32.816Z,26.60
2022-08-05T10:01:32.854Z,26.59
2022-08-05T10:02:32.917Z,26.56
2022-08-05T10:03:38.689Z,26.60
2022-08-05T10:04:32.971Z,26.59
2022-08-05T10:05:33.066Z,26.59
2022-08-05T10:06:33.049Z,26.53
2022-08-05T10:08:10.680Z,26.49
2022-08-05T10:08:37.784Z,26.46
2022-08-05T10:09:45.148Z,26.42
2022-08-05T10:10:33.209Z,26.46
2022-08-05T10:11:35.111Z,26.46
2022-08-05T10:12:34.002Z,26.44
2022-08-05T10:13:47.516Z,26.36
2022-08-05T10:14:33.377Z,26.39
2022-08-05T10:15:34.363Z,26.36
2022-08-05T10:16:33.894Z,26.44
2022-08-05T10:17:37.840Z,26.38
2022-08-05T10:18:33.533Z,26.41
2022-08-05T10:20:04.518Z,26.39
2022-08-05T10:20:33.614Z,26.44
2022-08-05T10:21:35.277Z,26.35
2022-08-05T10:22:37.689Z,26.38
2022-08-05T10:23:55.158Z,26.35
2022-08-05T10:24:33.776Z,26.38
2022-08-05T10:25:33.818Z,26.35
2022-08-05T10:26:34.006Z,26.42
2022-08-05T10:28:12.791Z,26.44
2022-08-05T10:28:33.968Z,26.39
2022-08-05T10:30:06.820Z,26.35
2022-08-05T10:31:20.275Z,26.35
2022-08-05T10:32:53.917Z,26.36
2022-08-05T10:32:55.421Z,26.32
2022-08-05T10:33:35.118Z,26.32
2022-08-05T10:34:34.183Z,26.35
2022-08-05T10:35:43.879Z,26.35
2022-08-05T10:36:34.261Z,26.35
2022-08-05T10:37:40.461Z,26.24
2022-08-05T10:38:34.348Z,26.28
2022-08-05T10:39:59.455Z,26.34
2022-08-05T10:40:34.459Z,26.28
2022-08-05T10:41:46.620Z,26.28
2022-08-05T10:42:43.782Z,26.21
2022-08-05T10:44:27.514Z,26.24
2022-08-05T10:45:39.984Z,26.17
2022-08-05T10:47:31.660Z,26.21
2022-08-05T10:48:36.070Z,26.19
2022-08-05T10:50:37.015Z,26.21
2022-08-05T10:51:35.757Z,26.21
2022-08-05T10:52:35.800Z,26.28
2022-08-05T10:53:37.986Z,26.27
2022-08-05T10:54:46.785Z,26.16
2022-08-05T10:56:03.683Z,26.21
2022-08-05T10:56:35.963Z,26.29
2022-08-05T10:57:35.997Z,26.24
2022-08-05T10:58:48.807Z,26.36
2022-08-05T11:00:02.547Z,26.41
2022-08-05T11:00:42.191Z,26.41
2022-08-05T11:01:55.128Z,26.47
2022-08-05T11:02:38.762Z,26.50
2022-08-05T11:03:36.328Z,26.53
2022-08-05T11:04:36.604Z,26.56
2022-08-05T11:05:36.338Z,26.64
2022-08-05T11:06:36.383Z,26.61
2022-08-05T11:08:02.732Z,26.64
2022-08-05T11:08:37.234Z,26.66
2022-08-05T11:09:45.589Z,26.68
2022-08-05T11:10:36.525Z,26.66
2022-08-05T11:11:44.488Z,26.69
2022-08-05T11:12:37.362Z,26.73
2022-08-05T11:13:36.654Z,26.73
2022-08-05T11:15:01.258Z,26.84
2022-08-05T11:15:59.220Z,26.83
2022-08-05T11:16:56.024Z,26.87
2022-08-05T11:17:59.518Z,26.94
2022-08-05T11:18:36.846Z,26.98
2022-08-05T11:20:10.938Z,26.98
2022-08-05T11:20:36.928Z,27.06
2022-08-05T11:21:40.941Z,27.13
2022-08-05T11:22:37.035Z,27.23
2022-08-05T11:24:05.601Z,27.30
2022-08-05T11:24:37.099Z,27.40
2022-08-05T11:26:04.904Z,27.48
2022-08-05T11:26:37.176Z,27.65
2022-08-05T11:27:51.475Z,27.80
2022-08-05T11:28:37.268Z,27.84
2022-08-05T11:29:37.447Z,28.08
2022-08-05T11:30:37.337Z,28.17
2022-08-05T11:31:56.271Z,28.30
2022-08-05T11:32:37.438Z,28.24
2022-08-05T11:33:46.138Z,28.32
2022-08-05T11:34:37.500Z,28.27
2022-08-05T11:35:37.622Z,28.35
2022-08-05T11:36:42.858Z,28.43
2022-08-05T11:38:26.574Z,28.57
2022-08-05T11:38:45.977Z,28.58
2022-08-05T11:39:37.721Z,28.70
2022-08-05T11:40:37.742Z,28.77
2022-08-05T11:42:01.370Z,28.91
2022-08-05T11:42:40.530Z,28.94
2022-08-05T11:44:04.602Z,29.10
2022-08-05T11:44:52.906Z,29.25
2022-08-05T11:46:23.439Z,29.44
2022-08-05T11:46:58.152Z,29.47
2022-08-05T11:47:49.502Z,29.45
2022-08-05T11:48:38.084Z,29.48
2022-08-05T11:49:38.126Z,29.63
2022-08-05T11:50:38.166Z,29.70
2022-08-05T11:51:44.186Z,29.78
2022-08-05T11:52:38.251Z,29.84
2022-08-05T11:53:40.961Z,29.91
2022-08-05T11:54:38.346Z,30.00
2022-08-05T11:55:38.392Z,30.01
2022-08-05T11:56:41.168Z,30.07
2022-08-05T11:58:08.557Z,29.99
2022-08-05T11:58:38.499Z,30.03
2022-08-05T11:59:49.825Z,30.01
2022-08-05T12:00:39.096Z,29.97
2022-08-05T12:01:38.644Z,29.94
2022-08-05T12:02:40.145Z,29.84
2022-08-05T12:03:38.708Z,29.94
2022-08-05T12:04:38.743Z,30.00
2022-08-05T12:05:40.041Z,29.97
2022-08-05T12:06:38.817Z,30.07
2022-08-05T12:08:09.060Z,30.13
2022-08-05T12:08:39.235Z,30.25
2022-08-05T12:09:53.434Z,30.34
2022-08-05T12:10:45.326Z,30.40
2022-08-05T12:11:39.849Z,30.56
2022-08-05T12:12:39.070Z,30.59
2022-08-05T12:13:48.711Z,30.54
2022-08-05T12:14:39.173Z,30.68
2022-08-05T12:15:40.121Z,30.68
2022-08-05T12:16:39.241Z,30.79
2022-08-05T12:18:02.880Z,30.78
2022-08-05T12:18:39.321Z,30.85
2022-08-05T12:20:27.852Z,30.81
2022-08-05T12:20:39.434Z,30.90
2022-08-05T12:21:39.527Z,30.96
2022-08-05T12:22:39.508Z,31.03
2022-08-05T12:23:43.141Z,31.05
2022-08-05T12:24:39.575Z,31.15
2022-08-05T12:25:39.614Z,31.19
2022-08-05T12:26:39.694Z,31.18
2022-08-05T12:27:52.869Z,31.12
2022-08-05T12:28:39.743Z,31.20
2022-08-05T12:29:39.795Z,31.28
2022-08-05T12:30:45.915Z,31.22
2022-08-05T12:31:41.506Z,31.30
2022-08-05T12:32:39.922Z,31.35
2022-08-05T12:33:39.973Z,31.40
2022-08-05T12:34:40.005Z,31.49
2022-08-05T12:35:40.078Z,31.45
2022-08-05T12:36:40.108Z,31.59
2022-08-05T12:37:40.123Z,31.64
2022-08-05T12:38:41.332Z,31.69
2022-08-05T12:39:40.242Z,31.68
2022-08-05T12:40:40.261Z,31.64
2022-08-05T12:41:43.617Z,31.72
2022-08-05T12:42:40.349Z,31.68
2022-08-05T12:43:40.381Z,31.68
2022-08-05T12:44:40.803Z,31.68
2022-08-05T12:45:48.244Z,31.65
2022-08-05T12:46:40.513Z,31.69
2022-08-05T12:47:43.423Z,31.72
2022-08-05T12:48:40.605Z,31.71
2022-08-05T12:50:04.464Z,31.69
2022-08-05T12:50:40.696Z,31.71
2022-08-05T12:52:12.660Z,31.75
2022-08-05T12:52:42.480Z,31.69
2022-08-05T12:53:40.818Z,31.64
2022-08-05T12:54:40.889Z,31.68
2022-08-05T12:55:40.894Z,31.68
2022-08-05T12:56:40.967Z,31.67
2022-08-05T12:58:38.591Z,31.68
2022-08-05T12:58:53.560Z,31.68
2022-08-05T13:00:08.492Z,31.71
2022-08-05T13:02:00.873Z,31.68
2022-08-05T13:02:01.450Z,31.71
2022-08-05T13:02:41.278Z,31.65
2022-08-05T13:03:42.145Z,31.67
2022-08-05T13:04:52.261Z,31.68